createdAt,value
2018-01-17T00:00:53.961Z,12.99
2018-01-17T00:01:54.761Z,12.98
2018-01-17T00:02:55.343Z,12.95
2018-01-17T00:03:56.451Z,12.95
2018-01-17T00:04:56.332Z,12.92
2018-01-17T00:05:58.131Z,12.98
2018-01-17T00:07:13.952Z,12.99
2018-01-17T00:07:59.652Z,12.92
2018-01-17T00:09:00.973Z,12.92
2018-01-17T00:10:03.647Z,12.95
2018-01-17T00:11:03.211Z,12.95
2018-01-17T00:12:05.061Z,12.92
2018-01-17T00:13:06.883Z,12.99
2018-01-17T00:14:06.705Z,12.96
2018-01-17T00:15:07.259Z,12.92
2018-01-17T00:16:08.899Z,12.99
2018-01-17T00:17:08.619Z,12.92
2018-01-17T00:18:09.995Z,12.99
2018-01-17T00:19:11.482Z,12.92
2018-01-17T00:20:12.896Z,12.98
2018-01-17T00:21:13.995Z,12.95
2018-01-17T00:22:15.537Z,12.96
2018-01-17T00:23:16.939Z,12.99
2018-01-17T00:24:16.831Z,12.98
2018-01-17T00:27:26.801Z,12.99
2018-01-17T00:28:27.371Z,12.95
2018-01-17T00:29:29.161Z,12.92
2018-01-17T00:30:28.536Z,12.96
2018-01-17T00:31:30.343Z,12.99
2018-01-17T00:32:31.935Z,12.95
2018-01-17T00:33:32.609Z,12.99
2018-01-17T00:34:32.680Z,12.95
2018-01-17T00:35:33.712Z,12.92
2018-01-17T00:36:36.007Z,12.99
2018-01-17T00:37:36.666Z,12.99
2018-01-17T00:38:37.749Z,12.99
2018-01-17T00:39:38.380Z,12.95
2018-01-17T00:40:39.721Z,12.99
2018-01-17T00:41:40.545Z,12.96
2018-01-17T00:42:42.377Z,12.95
2018-01-17T00:43:42.363Z,12.95
2018-01-17T00:44:44.107Z,12.95
2018-01-17T00:45:44.689Z,12.92
2018-01-17T00:46:46.376Z,12.92
2018-01-17T00:47:46.715Z,12.92
2018-01-17T00:48:48.100Z,12.95
2018-01-17T00:49:47.774Z,12.92
2018-01-17T00:50:49.460Z,12.95
2018-01-17T00:51:49.664Z,12.95
2018-01-17T00:52:51.579Z,12.95
2018-01-17T00:53:52.469Z,12.96
2018-01-17T00:54:53.589Z,12.95
2018-01-17T00:55:54.271Z,12.95
2018-01-17T00:56:54.386Z,12.95
2018-01-17T00:57:56.041Z,12.92
2018-01-17T00:58:56.982Z,12.92
2018-01-17T00:59:58.763Z,12.92
2018-01-17T01:00:59.062Z,12.95
2018-01-17T01:02:00.221Z,12.96
2018-01-17T01:03:03.241Z,12.98
2018-01-17T01:04:03.271Z,12.98
2018-01-17T01:05:03.671Z,12.99
2018-01-17T01:06:04.624Z,12.98
2018-01-17T01:07:04.948Z,13.02
2018-01-17T01:08:06.463Z,12.98
2018-01-17T01:09:07.463Z,13.02
2018-01-17T01:10:08.401Z,13.01
2018-01-17T01:11:09.119Z,13.01
2018-01-17T01:12:10.142Z,12.98
2018-01-17T01:13:10.568Z,13.02
2018-01-17T01:14:12.095Z,13.02
2018-01-17T01:15:13.766Z,12.96
2018-01-17T01:16:14.223Z,13.02
2018-01-17T01:17:15.757Z,12.96
2018-01-17T01:18:16.260Z,13.02
2018-01-17T01:19:17.570Z,12.96
2018-01-17T01:20:18.036Z,12.96
2018-01-17T01:21:19.592Z,12.99
2018-01-17T01:22:20.487Z,13.02
2018-01-17T01:24:06.112Z,12.99
2018-01-17T01:24:23.655Z,12.99
2018-01-17T01:25:23.818Z,12.96
2018-01-17T01:26:24.181Z,12.99
2018-01-17T01:27:25.821Z,12.98
2018-01-17T01:28:26.113Z,12.96
2018-01-17T01:29:27.628Z,13.02
2018-01-17T01:30:28.155Z,12.96
2018-01-17T01:31:29.099Z,12.98
2018-01-17T01:32:30.867Z,13.02
2018-01-17T01:33:32.424Z,13.02
2018-01-17T01:34:33.164Z,12.96
2018-01-17T01:35:32.819Z,13.02
2018-01-17T01:36:34.494Z,12.99
2018-01-17T01:37:35.471Z,12.98
2018-01-17T01:38:37.049Z,12.96
2018-01-17T01:39:37.164Z,12.99
2018-01-17T01:40:37.385Z,13.02
2018-01-17T01:41:39.013Z,12.96
2018-01-17T01:42:40.033Z,12.99
2018-01-17T01:43:41.780Z,12.98
2018-01-17T01:44:42.523Z,12.99
2018-01-17T01:45:43.143Z,12.96
2018-01-17T01:46:43.395Z,12.92
2018-01-17T01:47:44.397Z,13.02
2018-01-17T01:48:46.133Z,12.96
2018-01-17T01:49:46.685Z,12.98
2018-01-17T01:50:48.205Z,13.02
2018-01-17T01:51:49.173Z,12.98
2018-01-17T01:52:50.154Z,13.02
2018-01-17T01:53:51.217Z,12.99
2018-01-17T01:54:52.359Z,12.96
2018-01-17T01:55:53.807Z,13.02
2018-01-17T01:56:54.254Z,12.92
2018-01-17T01:57:55.838Z,12.98
2018-01-17T01:58:56.181Z,12.96
2018-01-17T01:59:58.059Z,12.99
2018-01-17T02:00:58.383Z,12.96
2018-01-17T02:01:59.537Z,13.02
2018-01-17T02:03:00.478Z,12.96
2018-01-17T02:04:00.849Z,13.02
2018-01-17T02:05:02.431Z,12.99
2018-01-17T02:06:03.023Z,13.01
2018-01-17T02:07:03.541Z,13.02
2018-01-17T02:08:04.353Z,13.01
2018-01-17T02:09:06.348Z,12.99
2018-01-17T02:10:07.481Z,12.96
2018-01-17T02:11:09.441Z,12.99
2018-01-17T02:12:11.885Z,12.98
2018-01-17T02:13:10.087Z,13.02
2018-01-17T02:14:12.385Z,12.96
2018-01-17T02:15:12.893Z,13.02
2018-01-17T02:16:13.438Z,13.02
2018-01-17T02:17:13.679Z,12.96
2018-01-17T02:18:15.374Z,12.96
2018-01-17T02:19:15.655Z,13.02
2018-01-17T02:20:16.717Z,13.02
2018-01-17T02:21:18.011Z,13.02
2018-01-17T02:22:18.417Z,12.96
2018-01-17T02:23:20.355Z,12.96
2018-01-17T02:24:20.373Z,12.99
2018-01-17T02:25:23.224Z,13.02
2018-01-17T02:26:23.035Z,12.99
2018-01-17T02:27:24.786Z,12.98
2018-01-17T02:28:27.101Z,13.01
2018-01-17T02:29:26.897Z,12.96
2018-01-17T02:30:27.794Z,12.96
2018-01-17T02:31:28.331Z,12.98
2018-01-17T02:32:29.497Z,12.96
2018-01-17T02:33:29.674Z,13.02
2018-01-17T02:34:30.736Z,13.02
2018-01-17T02:35:31.711Z,12.98
2018-01-17T02:36:32.982Z,12.98
2018-01-17T02:37:33.385Z,13.02
2018-01-17T02:38:35.022Z,12.96
2018-01-17T02:40:53.681Z,12.99
2018-01-17T02:41:03.825Z,12.96
2018-01-17T02:42:01.250Z,12.98
2018-01-17T02:43:01.160Z,13.02
2018-01-17T02:44:02.329Z,12.98
2018-01-17T02:45:02.440Z,12.99
2018-01-17T02:46:04.619Z,12.99
2018-01-17T02:47:05.203Z,12.98
2018-01-17T02:48:06.293Z,12.98
2018-01-17T02:49:07.272Z,13.02
2018-01-17T02:50:09.633Z,13.02
2018-01-17T02:51:10.713Z,12.98
2018-01-17T02:52:10.666Z,12.99
2018-01-17T02:53:11.591Z,12.96
2018-01-17T02:54:12.025Z,13.02
2018-01-17T02:55:12.849Z,12.96
2018-01-17T02:56:13.973Z,12.96
2018-01-17T02:57:14.455Z,12.96
2018-01-17T02:58:15.557Z,13.01
2018-01-17T02:59:16.696Z,12.99
2018-01-17T03:00:17.446Z,12.98
2018-01-17T03:01:19.479Z,12.96
2018-01-17T03:02:20.746Z,12.98
2018-01-17T03:03:22.485Z,12.96
2018-01-17T03:04:22.161Z,12.96
2018-01-17T03:05:23.769Z,12.96
2018-01-17T03:06:24.239Z,13.02
2018-01-17T03:07:25.612Z,12.96
2018-01-17T03:08:27.070Z,13.02
2018-01-17T03:09:27.440Z,13.02
2018-01-17T03:10:27.789Z,12.98
2018-01-17T03:11:28.890Z,12.99
2018-01-17T03:12:30.176Z,13.02
2018-01-17T03:13:31.257Z,12.98
2018-01-17T03:14:33.076Z,12.99
2018-01-17T03:15:32.587Z,12.96
2018-01-17T03:16:36.241Z,12.96
2018-01-17T03:17:35.961Z,13.02
2018-01-17T03:18:36.902Z,13.02
2018-01-17T03:19:37.812Z,12.96
2018-01-17T03:20:38.267Z,12.96
2018-01-17T03:21:39.140Z,12.98
2018-01-17T03:22:39.929Z,12.96
2018-01-17T03:23:41.556Z,12.98
2018-01-17T03:24:43.332Z,13.02
2018-01-17T03:25:42.815Z,13.02
2018-01-17T03:26:43.854Z,12.99
2018-01-17T03:27:44.498Z,12.98
2018-01-17T03:28:46.414Z,12.99
2018-01-17T03:29:46.566Z,13.02
2018-01-17T03:30:47.550Z,13.02
2018-01-17T03:31:50.911Z,12.96
2018-01-17T03:32:50.868Z,12.96
2018-01-17T03:33:51.418Z,12.96
2018-01-17T03:34:52.839Z,12.99
2018-01-17T03:35:53.600Z,12.96
2018-01-17T03:36:54.527Z,12.96
2018-01-17T03:37:54.990Z,13.02
2018-01-17T03:38:56.497Z,12.98
2018-01-17T03:39:57.121Z,12.96
2018-01-17T03:40:58.719Z,12.96
2018-01-17T03:41:59.108Z,13.02
2018-01-17T03:42:59.481Z,12.98
2018-01-17T03:44:00.789Z,12.96
2018-01-17T03:45:01.960Z,13.02
2018-01-17T03:46:03.186Z,12.99
2018-01-17T03:47:04.381Z,13.02
2018-01-17T03:48:05.633Z,12.98
2018-01-17T03:49:07.093Z,12.98
2018-01-17T03:50:06.659Z,13.02
2018-01-17T03:51:08.361Z,12.96
2018-01-17T03:52:09.835Z,12.96
2018-01-17T03:53:10.542Z,12.99
2018-01-17T03:54:10.701Z,13.02
2018-01-17T03:55:11.775Z,12.92
2018-01-17T03:56:12.890Z,12.99
2018-01-17T03:57:14.683Z,13.02
2018-01-17T03:58:15.915Z,12.99
2018-01-17T03:59:16.119Z,12.96
2018-01-17T04:00:19.364Z,12.96
2018-01-17T04:01:18.810Z,13.02
2018-01-17T04:02:19.619Z,12.99
2018-01-17T04:03:20.179Z,13.02
2018-01-17T04:04:21.901Z,12.98
2018-01-17T04:05:23.539Z,12.99
2018-01-17T04:06:23.813Z,12.98
2018-01-17T04:07:25.013Z,13.02
2018-01-17T04:08:24.982Z,12.98
2018-01-17T04:09:26.601Z,13.02
2018-01-17T04:10:27.603Z,12.96
2018-01-17T04:11:28.198Z,12.99
2018-01-17T04:12:29.745Z,12.96
2018-01-17T04:13:29.627Z,12.98
2018-01-17T04:14:31.304Z,13.02
2018-01-17T04:15:31.724Z,13.02
2018-01-17T04:16:33.890Z,12.98
2018-01-17T04:17:35.531Z,12.98
2018-01-17T04:18:35.316Z,13.02
2018-01-17T04:19:37.027Z,13.02
2018-01-17T04:20:37.993Z,13.02
2018-01-17T04:21:38.292Z,12.98
2018-01-17T04:22:40.606Z,13.02
2018-01-17T04:27:12.926Z,12.98
2018-01-17T04:27:22.860Z,13.02
2018-01-17T04:28:20.111Z,12.99
2018-01-17T04:29:19.443Z,13.02
2018-01-17T04:30:20.511Z,12.98
2018-01-17T04:31:21.422Z,12.99
2018-01-17T04:32:23.923Z,13.02
2018-01-17T04:33:24.543Z,12.98
2018-01-17T04:34:25.218Z,12.96
2018-01-17T04:35:26.314Z,12.96
2018-01-17T04:36:27.816Z,12.99
2018-01-17T04:37:27.828Z,12.99
2018-01-17T04:38:29.210Z,12.96
2018-01-17T04:39:31.366Z,13.02
2018-01-17T04:40:30.966Z,12.96
2018-01-17T04:41:32.390Z,13.02
2018-01-17T04:42:32.450Z,12.96
2018-01-17T04:43:33.875Z,12.98
2018-01-17T04:44:36.496Z,12.98
2018-01-17T04:45:36.218Z,12.92
2018-01-17T04:46:37.153Z,13.02
2018-01-17T04:47:38.696Z,13.02
2018-01-17T04:48:39.510Z,12.96
2018-01-17T04:49:40.816Z,12.98
2018-01-17T04:50:41.910Z,12.96
2018-01-17T04:51:44.311Z,12.96
2018-01-17T04:52:42.918Z,12.96
2018-01-17T04:53:44.564Z,12.98
2018-01-17T04:54:45.384Z,12.98
2018-01-17T04:55:46.415Z,12.98
2018-01-17T04:56:46.950Z,12.96
2018-01-17T04:57:47.477Z,13.02
2018-01-17T04:58:48.913Z,12.98
2018-01-17T04:59:49.690Z,12.98
2018-01-17T05:00:50.581Z,13.02
2018-01-17T05:01:52.150Z,12.92
2018-01-17T05:02:53.577Z,13.02
2018-01-17T05:03:56.038Z,12.96
2018-01-17T05:04:55.886Z,13.02
2018-01-17T05:05:56.154Z,13.02
2018-01-17T05:06:57.115Z,13.02
2018-01-17T05:07:58.345Z,12.96
2018-01-17T05:08:59.787Z,13.02
2018-01-17T05:10:01.481Z,12.98
2018-01-17T05:11:01.593Z,12.98
2018-01-17T05:12:02.231Z,13.02
2018-01-17T05:13:04.929Z,12.98
2018-01-17T05:14:03.929Z,13.02
2018-01-17T05:15:05.241Z,12.96
2018-01-17T05:16:06.700Z,12.92
2018-01-17T05:17:06.627Z,13.02
2018-01-17T05:18:09.066Z,13.02
2018-01-17T05:19:09.503Z,12.99
2018-01-17T05:20:10.095Z,12.98
2018-01-17T05:21:10.748Z,12.98
2018-01-17T05:22:12.299Z,12.99
2018-01-17T05:23:12.970Z,12.96
2018-01-17T05:24:14.596Z,12.98
2018-01-17T05:25:15.058Z,13.02
2018-01-17T05:27:51.321Z,13.02
2018-01-17T05:27:54.107Z,12.99
2018-01-17T05:28:56.377Z,12.98
2018-01-17T05:29:57.747Z,13.02
2018-01-17T05:30:58.793Z,12.98
2018-01-17T05:32:00.026Z,12.99
2018-01-17T05:33:01.122Z,12.99
2018-01-17T05:34:01.377Z,13.02
2018-01-17T05:35:02.101Z,13.02
2018-01-17T05:36:02.654Z,12.98
2018-01-17T05:37:04.383Z,13.02
2018-01-17T05:38:04.355Z,13.02
2018-01-17T05:39:06.913Z,12.98
2018-01-17T05:40:06.986Z,13.02
2018-01-17T05:41:08.774Z,12.99
2018-01-17T05:42:09.203Z,12.96
2018-01-17T05:43:10.405Z,13.02
2018-01-17T05:44:12.471Z,13.02
2018-01-17T05:45:13.263Z,12.98
2018-01-17T05:46:13.887Z,12.98
2018-01-17T05:47:14.417Z,12.96
2018-01-17T05:50:10.560Z,13.02
2018-01-17T05:50:21.622Z,12.96
2018-01-17T05:51:35.699Z,12.99
2018-01-17T05:52:43.536Z,12.99
2018-01-17T05:53:18.247Z,12.96
2018-01-17T05:54:19.331Z,13.02
2018-01-17T05:55:20.643Z,12.99
2018-01-17T05:56:22.172Z,12.99
2018-01-17T05:57:21.448Z,13.02
2018-01-17T05:58:25.279Z,12.96
2018-01-17T05:59:25.537Z,12.98
2018-01-17T06:00:25.689Z,13.02
2018-01-17T06:01:26.875Z,12.96
2018-01-17T06:02:27.290Z,12.96
2018-01-17T06:03:33.761Z,13.02
2018-01-17T06:04:30.540Z,12.99
2018-01-17T06:05:31.921Z,12.98
2018-01-17T06:06:32.043Z,12.96
2018-01-17T06:07:32.570Z,13.02
2018-01-17T06:08:32.845Z,13.02
2018-01-17T06:09:33.855Z,12.98
2018-01-17T06:10:35.323Z,13.02
2018-01-17T06:11:36.918Z,13.02
2018-01-17T06:12:38.795Z,12.96
2018-01-17T06:13:37.580Z,12.96
2018-01-17T06:14:39.394Z,13.02
2018-01-17T06:15:41.255Z,13.01
2018-01-17T06:16:42.344Z,12.96
2018-01-17T06:17:42.937Z,12.96
2018-01-17T06:18:43.934Z,12.96
2018-01-17T06:19:45.395Z,13.01
2018-01-17T06:20:46.556Z,13.02
2018-01-17T06:21:46.297Z,12.98
2018-01-17T06:22:49.940Z,12.96
2018-01-17T06:23:47.951Z,13.02
2018-01-17T06:24:49.611Z,12.96
2018-01-17T06:25:50.301Z,12.99
2018-01-17T06:26:52.300Z,12.96
2018-01-17T06:27:52.449Z,12.98
2018-01-17T06:28:52.813Z,13.02
2018-01-17T06:29:55.788Z,13.02
2018-01-17T06:30:55.956Z,12.99
2018-01-17T06:31:56.941Z,13.01
2018-01-17T06:32:57.350Z,13.02
2018-01-17T06:33:59.171Z,13.02
2018-01-17T06:34:59.445Z,13.02
2018-01-17T06:36:01.069Z,12.96
2018-01-17T06:37:02.163Z,12.99
2018-01-17T06:38:03.081Z,13.02
2018-01-17T06:39:04.017Z,12.96
2018-01-17T06:40:04.124Z,12.98
2018-01-17T06:41:05.895Z,13.02
2018-01-17T06:42:07.099Z,13.02
2018-01-17T06:43:08.733Z,13.01
2018-01-17T06:44:09.123Z,12.98
2018-01-17T06:45:09.464Z,12.98
2018-01-17T06:46:11.531Z,12.96
2018-01-17T06:47:12.471Z,12.98
2018-01-17T06:48:13.847Z,13.02
2018-01-17T06:49:17.107Z,13.01
2018-01-17T06:50:15.442Z,12.98
2018-01-17T06:51:16.625Z,12.96
2018-01-17T06:52:17.787Z,12.96
2018-01-17T06:53:18.922Z,13.01
2018-01-17T06:54:19.315Z,13.02
2018-01-17T06:55:23.505Z,13.02
2018-01-17T06:56:23.543Z,12.96
2018-01-17T06:57:21.793Z,12.96
2018-01-17T06:58:24.697Z,12.99
2018-01-17T06:59:24.048Z,13.02
2018-01-17T07:00:25.877Z,12.98
2018-01-17T07:01:25.809Z,13.01
2018-01-17T07:02:27.169Z,13.01
2018-01-17T07:03:28.587Z,12.99
2018-01-17T07:04:29.506Z,12.96
2018-01-17T07:05:30.298Z,12.96
2018-01-17T07:06:32.291Z,13.01
2018-01-17T07:07:32.175Z,12.98
2018-01-17T07:08:33.474Z,13.05
2018-01-17T07:09:34.397Z,13.09
2018-01-17T07:10:35.501Z,13.39
2018-01-17T07:11:36.577Z,13.87
2018-01-17T07:12:37.729Z,14.25
2018-01-17T07:13:38.909Z,14.33
2018-01-17T07:14:39.227Z,14.43
2018-01-17T07:15:42.003Z,14.46
2018-01-17T07:16:40.901Z,14.43
2018-01-17T07:17:41.534Z,14.38
2018-01-17T07:18:43.783Z,14.43
2018-01-17T07:19:44.841Z,14.46
2018-01-17T07:20:45.232Z,14.38
2018-01-17T07:21:46.514Z,14.43
2018-01-17T07:22:48.487Z,14.46
2018-01-17T07:23:48.098Z,14.41
2018-01-17T07:24:49.703Z,14.38
2018-01-17T07:25:49.669Z,14.38
2018-01-17T07:27:21.811Z,14.38
2018-01-17T07:30:22.826Z,14.46
2018-01-17T07:31:03.688Z,14.46
2018-01-17T07:32:02.845Z,14.33
2018-01-17T07:33:34.357Z,14.43
2018-01-17T07:34:04.739Z,14.46
2018-01-17T07:35:05.543Z,14.41
2018-01-17T07:36:07.145Z,14.06
2018-01-17T07:37:07.715Z,13.91
2018-01-17T07:38:09.135Z,13.93
2018-01-17T07:39:11.201Z,13.86
2018-01-17T07:40:11.163Z,13.9
2018-01-17T07:41:12.722Z,13.84
2018-01-17T07:42:13.128Z,13.8
2018-01-17T07:43:13.999Z,13.8
2018-01-17T07:44:15.319Z,13.77
2018-01-17T07:45:16.318Z,13.81
2018-01-17T07:46:17.557Z,13.68
2018-01-17T07:47:19.739Z,13.74
2018-01-17T07:48:20.234Z,13.71
2018-01-17T07:49:22.133Z,13.72
2018-01-17T07:50:21.778Z,13.65
2018-01-17T07:51:22.342Z,13.7
2018-01-17T07:52:23.538Z,13.64
2018-01-17T07:53:25.543Z,13.64
2018-01-17T07:54:40.444Z,13.64
2018-01-17T07:55:46.177Z,13.64
2018-01-17T07:56:27.024Z,13.61
2018-01-17T07:57:29.487Z,13.58
2018-01-17T07:58:33.447Z,13.5
2018-01-17T07:59:30.630Z,13.5
2018-01-17T08:00:32.093Z,13.5
2018-01-17T08:01:33.869Z,13.61
2018-01-17T08:02:33.390Z,13.64
2018-01-17T08:03:34.112Z,13.71
2018-01-17T08:04:36.305Z,13.8
2018-01-17T08:05:36.541Z,14.33
2018-01-17T08:06:37.201Z,13.75
2018-01-17T08:07:37.994Z,13.68
2018-01-17T08:08:54.137Z,13.67
2018-01-17T08:09:39.925Z,13.65
2018-01-17T08:10:41.354Z,13.64
2018-01-17T08:11:48.400Z,13.65
2018-01-17T08:12:43.611Z,14.41
2018-01-17T08:13:45.047Z,13.75
2018-01-17T08:14:46.119Z,14.38
2018-01-17T08:15:46.129Z,14.33
2018-01-17T08:16:47.451Z,14.34
2018-01-17T08:17:47.900Z,14.27
2018-01-17T08:18:49.679Z,14.28
2018-01-17T08:19:50.390Z,14.34
2018-01-17T08:20:51.536Z,14.27
2018-01-17T08:21:51.984Z,14.27
2018-01-17T08:22:53.247Z,14.3
2018-01-17T08:23:54.098Z,14.31
2018-01-17T08:24:54.539Z,14.31
2018-01-17T08:25:56.534Z,14.25
2018-01-17T08:26:57.068Z,14.34
2018-01-17T08:27:58.465Z,14.31
2018-01-17T08:28:59.078Z,14.31
2018-01-17T08:30:00.560Z,14.31
2018-01-17T08:31:03.355Z,14.27
2018-01-17T08:32:02.217Z,14.21
2018-01-17T08:33:03.146Z,14.24
2018-01-17T08:34:05.341Z,14.34
2018-01-17T08:35:05.141Z,14.28
2018-01-17T08:36:06.834Z,14.31
2018-01-17T08:37:07.382Z,14.34
2018-01-17T08:38:08.168Z,14.28
2018-01-17T08:39:09.531Z,14.21
2018-01-17T08:40:09.849Z,14.28
2018-01-17T08:41:11.694Z,14.27
2018-01-17T08:42:11.475Z,14.22
2018-01-17T08:43:13.379Z,14.21
2018-01-17T08:44:13.494Z,14.27
2018-01-17T08:45:15.712Z,14.25
2018-01-17T08:46:16.701Z,14.3
2018-01-17T08:47:18.570Z,14.21
2018-01-17T08:48:19.623Z,14.22
2018-01-17T08:49:19.229Z,14.24
2018-01-17T08:50:20.947Z,14.22
2018-01-17T08:51:22.216Z,14.15
2018-01-17T08:52:23.631Z,14.15
2018-01-17T08:53:24.035Z,14.09
2018-01-17T08:54:23.867Z,14.12
2018-01-17T08:55:25.970Z,14.09
2018-01-17T08:56:26.608Z,14.09
2018-01-17T08:57:26.635Z,14.11
2018-01-17T08:58:28.349Z,14.12
2018-01-17T08:59:29.424Z,14.22
2018-01-17T09:00:31.279Z,14.12
2018-01-17T09:01:32.289Z,14.12
2018-01-17T09:02:32.939Z,14.15
2018-01-17T09:03:34.995Z,14.15
2018-01-17T09:04:34.288Z,14.03
2018-01-17T09:05:35.660Z,14.03
2018-01-17T09:06:37.117Z,14
2018-01-17T09:07:37.563Z,13.94
2018-01-17T09:08:38.737Z,14.11
2018-01-17T09:09:45.400Z,13.99
2018-01-17T09:10:41.323Z,13.99
2018-01-17T09:11:41.764Z,13.97
2018-01-17T09:13:47.523Z,13.99
2018-01-17T09:13:50.098Z,13.96
2018-01-17T09:14:52.448Z,14.11
2018-01-17T09:15:53.959Z,14.11
2018-01-17T09:16:54.804Z,13.99
2018-01-17T09:17:56.058Z,14.03
2018-01-17T09:18:59.101Z,13.91
2018-01-17T09:20:38.161Z,13.93
2018-01-17T09:21:01.239Z,13.96
2018-01-17T09:22:00.502Z,13.96
2018-01-17T09:23:00.159Z,13.96
2018-01-17T09:24:01.875Z,13.89
2018-01-17T09:25:03.493Z,13.9
2018-01-17T09:26:03.185Z,13.87
2018-01-17T09:27:05.878Z,13.86
2018-01-17T09:28:05.999Z,14.05
2018-01-17T09:29:07.100Z,13.89
2018-01-17T09:30:07.904Z,13.86
2018-01-17T09:31:09.334Z,13.86
2018-01-17T09:32:09.722Z,13.86
2018-01-17T09:33:10.794Z,13.89
2018-01-17T09:34:11.153Z,13.87
2018-01-17T09:35:12.105Z,13.89
2018-01-17T09:36:12.803Z,13.87
2018-01-17T09:37:14.075Z,13.87
2018-01-17T09:38:14.681Z,13.84
2018-01-17T09:39:17.203Z,13.87
2018-01-17T09:40:16.760Z,13.87
2018-01-17T09:41:21.245Z,13.87
2018-01-17T09:42:20.050Z,13.83
2018-01-17T09:43:20.973Z,13.8
2018-01-17T09:44:22.454Z,13.8
2018-01-17T09:45:23.635Z,13.84
2018-01-17T09:46:24.967Z,13.81
2018-01-17T09:47:26.112Z,13.78
2018-01-17T09:48:25.769Z,13.77
2018-01-17T09:49:26.647Z,13.91
2018-01-17T09:50:27.717Z,13.99
2018-01-17T09:51:27.999Z,13.75
2018-01-17T09:52:31.242Z,14.03
2018-01-17T09:53:29.914Z,14.13
2018-01-17T09:54:32.274Z,14.09
2018-01-17T09:55:32.395Z,14.06
2018-01-17T09:56:33.309Z,13.91
2018-01-17T09:57:35.343Z,13.99
2018-01-17T09:58:35.286Z,14.11
2018-01-17T09:59:36.220Z,14.06
2018-01-17T10:00:37.567Z,14.09
2018-01-17T10:01:38.257Z,14.06
2018-01-17T10:02:39.587Z,14.02
2018-01-17T10:03:40.689Z,14.11
2018-01-17T10:04:41.418Z,14.02
2018-01-17T10:05:41.852Z,14.11
2018-01-17T10:06:43.697Z,14.11
2018-01-17T10:07:46.537Z,14.11
2018-01-17T10:08:46.218Z,14.11
2018-01-17T10:09:47.212Z,14.13
2018-01-17T10:10:46.999Z,14.11
2018-01-17T10:11:47.669Z,14.11
2018-01-17T10:12:50.132Z,14.09
2018-01-17T10:13:50.074Z,14.03
2018-01-17T10:14:51.088Z,14
2018-01-17T10:15:51.537Z,13.86
2018-01-17T10:16:54.573Z,13.91
2018-01-17T10:17:53.717Z,14.05
2018-01-17T10:18:55.945Z,14
2018-01-17T10:19:56.746Z,13.97
2018-01-17T10:20:57.167Z,14.08
2018-01-17T10:21:58.009Z,14.11
2018-01-17T10:22:59.492Z,14.11
2018-01-17T10:24:00.183Z,14.06
2018-01-17T10:25:01.720Z,14.12
2018-01-17T10:26:03.667Z,14.09
2018-01-17T10:27:03.415Z,14.12
2018-01-17T10:28:04.890Z,14.06
2018-01-17T10:29:05.396Z,14.09
2018-01-17T10:30:06.248Z,14.12
2018-01-17T10:31:07.653Z,14.09
2018-01-17T10:32:10.114Z,14.09
2018-01-17T10:33:10.064Z,13.91
2018-01-17T10:34:11.075Z,13.99
2018-01-17T10:35:18.158Z,14.09
2018-01-17T10:36:13.456Z,14.06
2018-01-17T10:37:13.781Z,14.13
2018-01-17T10:38:15.269Z,14.16
2018-01-17T10:39:16.449Z,14.09
2018-01-17T10:40:18.488Z,14.16
2018-01-17T10:41:17.807Z,14.15
2018-01-17T10:42:18.457Z,14.13
2018-01-17T10:43:19.176Z,14.11
2018-01-17T10:44:20.560Z,14.16
2018-01-17T10:45:21.521Z,14.12
2018-01-17T10:46:21.905Z,14.09
2018-01-17T10:47:23.479Z,14.12
2018-01-17T10:48:25.149Z,14.13
2018-01-17T10:49:24.888Z,14.13
2018-01-17T10:50:27.718Z,14.16
2018-01-17T10:51:27.139Z,14.11
2018-01-17T10:52:30.997Z,14.13
2018-01-17T10:53:33.327Z,14.12
2018-01-17T10:54:30.060Z,14.19
2018-01-17T10:55:30.541Z,14.15
2018-01-17T10:56:32.135Z,14.15
2018-01-17T10:57:35.879Z,14.15
2018-01-17T10:58:36.363Z,14.15
2018-01-17T10:59:36.316Z,14.15
2018-01-17T11:00:37.297Z,14.15
2018-01-17T11:01:37.266Z,14.15
2018-01-17T11:02:37.871Z,14.15
2018-01-17T11:03:42.123Z,14.18
2018-01-17T11:04:42.749Z,14.19
2018-01-17T11:05:41.688Z,14.15
2018-01-17T11:06:42.943Z,14.09
2018-01-17T11:07:44.977Z,14.11
2018-01-17T11:08:44.466Z,14.11
2018-01-17T11:11:23.683Z,14.03
2018-01-17T11:11:27.055Z,14.05
2018-01-17T11:12:30.646Z,14
2018-01-17T11:13:29.960Z,13.91
2018-01-17T11:14:31.260Z,13.94
2018-01-17T11:15:32.919Z,13.93
2018-01-17T11:16:35.077Z,13.86
2018-01-17T11:17:35.175Z,13.86
2018-01-17T11:18:37.739Z,13.83
2018-01-17T11:19:51.916Z,13.8
2018-01-17T11:20:37.405Z,13.81
2018-01-17T11:21:38.413Z,13.81
2018-01-17T11:22:39.886Z,13.75
2018-01-17T11:23:40.391Z,13.74
2018-01-17T11:24:41.219Z,13.71
2018-01-17T11:25:42.517Z,13.7
2018-01-17T11:26:43.570Z,13.64
2018-01-17T11:27:45.065Z,13.64
2018-01-17T11:28:45.273Z,13.56
2018-01-17T11:29:46.418Z,13.5
2018-01-17T11:30:49.151Z,13.52
2018-01-17T11:31:48.703Z,13.52
2018-01-17T11:32:49.803Z,13.45
2018-01-17T11:33:50.375Z,13.46
2018-01-17T11:34:51.031Z,13.39
2018-01-17T11:35:52.977Z,13.4
2018-01-17T11:36:53.635Z,13.36
2018-01-17T11:37:55.559Z,13.33
2018-01-17T11:38:56.898Z,13.34
2018-01-17T11:39:56.036Z,13.24
2018-01-17T11:40:58.363Z,13.28
2018-01-17T11:41:57.732Z,13.21
2018-01-17T11:42:58.493Z,13.21
2018-01-17T11:44:00.801Z,13.26
2018-01-17T11:45:00.896Z,13.23
2018-01-17T11:46:03.091Z,13.18
2018-01-17T11:47:03.609Z,13.15
2018-01-17T11:48:04.738Z,13.17
2018-01-17T11:49:05.574Z,13.14
2018-01-17T11:50:06.283Z,13.09
2018-01-17T11:51:08.235Z,13.09
2018-01-17T11:52:08.433Z,13.11
2018-01-17T11:53:10.600Z,13.04
2018-01-17T11:54:11.318Z,13.04
2018-01-17T11:55:10.635Z,13.05
2018-01-17T11:56:12.168Z,13.05
2018-01-17T11:57:14.079Z,12.98
2018-01-17T11:58:15.038Z,13.04
2018-01-17T11:59:17.032Z,12.98
2018-01-17T12:00:17.293Z,13.05
2018-01-17T12:01:19.190Z,12.98
2018-01-17T12:02:18.077Z,13.05
2018-01-17T12:03:20.566Z,13.04
2018-01-17T12:04:20.790Z,13.05
2018-01-17T12:05:21.533Z,13.05
2018-01-17T12:06:22.360Z,13.05
2018-01-17T12:07:22.860Z,12.98
2018-01-17T12:08:24.276Z,13.05
2018-01-17T12:09:25.723Z,12.98
2018-01-17T12:10:25.791Z,13.05
2018-01-17T12:11:27.811Z,12.98
2018-01-17T12:12:28.090Z,13.02
2018-01-17T12:13:29.073Z,13.02
2018-01-17T12:14:30.584Z,12.98
2018-01-17T12:15:30.466Z,12.98
2018-01-17T12:16:31.844Z,13.01
2018-01-17T12:17:35.160Z,13.01
2018-01-17T12:18:34.316Z,12.98
2018-01-17T12:19:35.299Z,13.05
2018-01-17T12:20:35.935Z,13.01
2018-01-17T12:21:37.991Z,13.01
2018-01-17T12:22:38.511Z,13.02
2018-01-17T12:23:39.517Z,13.02
2018-01-17T12:24:40.653Z,13.05
2018-01-17T12:25:42.689Z,13.02
2018-01-17T12:26:43.994Z,13.02
2018-01-17T12:27:43.335Z,12.98
2018-01-17T12:28:45.481Z,13.05
2018-01-17T12:29:44.986Z,13.02
2018-01-17T12:32:05.111Z,13.01
2018-01-17T12:32:10.633Z,13.02
2018-01-17T12:33:11.022Z,13.05
2018-01-17T12:34:12.307Z,13.05
2018-01-17T12:35:13.072Z,13.05
2018-01-17T12:36:13.828Z,13.05
2018-01-17T12:37:15.612Z,13.05
2018-01-17T12:38:18.166Z,13.05
2018-01-17T12:39:16.959Z,12.98
2018-01-17T12:40:17.997Z,13.05
2018-01-17T12:41:19.872Z,13.05
2018-01-17T12:42:20.898Z,12.98
2018-01-17T12:43:22.416Z,13.05
2018-01-17T12:44:25.818Z,12.98
2018-01-17T12:45:23.083Z,13.05
2018-01-17T12:46:24.671Z,13.05
2018-01-17T12:47:28.020Z,13.01
2018-01-17T12:48:27.333Z,13.02
2018-01-17T12:49:28.377Z,12.98
2018-01-17T12:50:28.857Z,13.01
2018-01-17T12:51:31.405Z,12.98
2018-01-17T12:52:30.915Z,13.05
2018-01-17T12:53:30.693Z,13.05
2018-01-17T12:54:31.731Z,13.05
2018-01-17T12:55:33.004Z,13.05
2018-01-17T12:56:35.927Z,12.98
2018-01-17T12:57:35.228Z,12.98
2018-01-17T12:58:36.664Z,12.98
2018-01-17T12:59:37.179Z,12.98
2018-01-17T13:00:38.147Z,13.05
2018-01-17T13:01:38.855Z,13.02
2018-01-17T13:02:42.065Z,12.98
2018-01-17T13:03:41.758Z,12.98
2018-01-17T13:04:42.953Z,13.02
2018-01-17T13:05:45.459Z,13.01
2018-01-17T13:06:44.577Z,13.02
2018-01-17T13:07:48.147Z,12.98
2018-01-17T13:08:46.420Z,13.05
2018-01-17T13:09:49.005Z,13.05
2018-01-17T13:10:47.897Z,13.01
2018-01-17T13:11:50.993Z,13.02
2018-01-17T13:12:50.279Z,13.05
2018-01-17T13:13:56.999Z,12.98
2018-01-17T13:14:55.109Z,13.05
2018-01-17T13:15:55.157Z,12.98
2018-01-17T13:16:54.556Z,13.02